sensor_id;sensor_type;location;lat;lon;timestamp;P1;durP1;ratioP1;P2;durP2;ratioP2
22429;SDS011;11382;48.086;11.632;2023-08-17T00:01:17;10.18;;;6.72;;
22429;SDS011;11382;48.086;11.632;2023-08-17T00:03:46;10.63;;;6.95;;
22429;SDS011;11382;48.086;11.632;2023-08-17T00:06:14;9.05;;;6.90;;
22429;SDS011;11382;48.086;11.632;2023-08-17T00:08:42;9.43;;;7.03;;
22429;SDS011;11382;48.086;11.632;2023-08-17T00:11:12;8.48;;;6.78;;
22429;SDS011;11382;48.086;11.632;2023-08-17T00:13:40;8.50;;;7.40;;
22429;SDS011;11382;48.086;11.632;2023-08-17T00:16:08;9.10;;;7.30;;
22429;SDS011;11382;48.086;11.632;2023-08-17T00:18:36;7.95;;;6.88;;
22429;SDS011;11382;48.086;11.632;2023-08-17T00:21:04;7.82;;;6.68;;
22429;SDS011;11382;48.086;11.632;2023-08-17T00:23:32;9.00;;;7.30;;
22429;SDS011;11382;48.086;11.632;2023-08-17T00:26:00;9.27;;;6.75;;
22429;SDS011;11382;48.086;11.632;2023-08-17T00:28:29;8.75;;;7.00;;
22429;SDS011;11382;48.086;11.632;2023-08-17T00:30:57;8.23;;;6.97;;
22429;SDS011;11382;48.086;11.632;2023-08-17T00:33:26;8.30;;;7.40;;
22429;SDS011;11382;48.086;11.632;2023-08-17T00:35:55;9.75;;;7.32;;
22429;SDS011;11382;48.086;11.632;2023-08-17T00:38:24;8.20;;;7.38;;
22429;SDS011;11382;48.086;11.632;2023-08-17T00:40:52;7.55;;;6.80;;
22429;SDS011;11382;48.086;11.632;2023-08-17T00:43:21;7.95;;;7.10;;
22429;SDS011;11382;48.086;11.632;2023-08-17T00:45:50;9.95;;;6.78;;
22429;SDS011;11382;48.086;11.632;2023-08-17T00:48:19;9.65;;;6.80;;
22429;SDS011;11382;48.086;11.632;2023-08-17T00:50:47;7.75;;;6.95;;
22429;SDS011;11382;48.086;11.632;2023-08-17T00:53:17;8.20;;;6.85;;
22429;SDS011;11382;48.086;11.632;2023-08-17T00:55:49;9.80;;;7.75;;
22429;SDS011;11382;48.086;11.632;2023-08-17T00:58:20;9.85;;;7.20;;
22429;SDS011;11382;48.086;11.632;2023-08-17T01:00:48;10.50;;;7.30;;
22429;SDS011;11382;48.086;11.632;2023-08-17T01:03:17;9.82;;;6.55;;
22429;SDS011;11382;48.086;11.632;2023-08-17T01:05:47;9.07;;;7.60;;
22429;SDS011;11382;48.086;11.632;2023-08-17T01:08:15;9.25;;;7.70;;
22429;SDS011;11382;48.086;11.632;2023-08-17T01:10:45;8.90;;;7.40;;
22429;SDS011;11382;48.086;11.632;2023-08-17T01:13:21;10.38;;;7.88;;
22429;SDS011;11382;48.086;11.632;2023-08-17T01:15:55;8.80;;;7.45;;
22429;SDS011;11382;48.086;11.632;2023-08-17T01:18:28;10.85;;;7.95;;
22429;SDS011;11382;48.086;11.632;2023-08-17T01:21:00;10.55;;;8.48;;
22429;SDS011;11382;48.086;11.632;2023-08-17T01:23:33;12.45;;;8.45;;
22429;SDS011;11382;48.086;11.632;2023-08-17T01:26:01;10.80;;;9.18;;
22429;SDS011;11382;48.086;11.632;2023-08-17T01:28:30;9.93;;;7.72;;
22429;SDS011;11382;48.086;11.632;2023-08-17T01:31:00;10.30;;;8.00;;
22429;SDS011;11382;48.086;11.632;2023-08-17T01:33:35;10.13;;;7.85;;
22429;SDS011;11382;48.086;11.632;2023-08-17T01:36:13;11.45;;;8.52;;
22429;SDS011;11382;48.086;11.632;2023-08-17T01:38:48;8.85;;;7.47;;
22429;SDS011;11382;48.086;11.632;2023-08-17T01:41:18;8.68;;;7.18;;
22429;SDS011;11382;48.086;11.632;2023-08-17T01:43:49;10.05;;;6.90;;
22429;SDS011;11382;48.086;11.632;2023-08-17T01:46:18;9.20;;;7.45;;
22429;SDS011;11382;48.086;11.632;2023-08-17T01:48:46;9.90;;;7.68;;
22429;SDS011;11382;48.086;11.632;2023-08-17T01:51:16;8.25;;;7.03;;
22429;SDS011;11382;48.086;11.632;2023-08-17T01:53:47;10.07;;;7.20;;
22429;SDS011;11382;48.086;11.632;2023-08-17T01:56:15;9.35;;;7.28;;
22429;SDS011;11382;48.086;11.632;2023-08-17T01:58:44;10.93;;;7.53;;
22429;SDS011;11382;48.086;11.632;2023-08-17T02:01:12;9.10;;;8.02;;
22429;SDS011;11382;48.086;11.632;2023-08-17T02:03:40;10.52;;;8.27;;
22429;SDS011;11382;48.086;11.632;2023-08-17T02:06:09;9.02;;;8.07;;
22429;SDS011;11382;48.086;11.632;2023-08-17T02:08:37;9.80;;;7.75;;
22429;SDS011;11382;48.086;11.632;2023-08-17T02:11:06;8.93;;;7.47;;
22429;SDS011;11382;48.086;11.632;2023-08-17T02:13:37;14.30;;;8.15;;
22429;SDS011;11382;48.086;11.632;2023-08-17T02:16:05;8.60;;;7.57;;
22429;SDS011;11382;48.086;11.632;2023-08-17T02:18:33;9.32;;;7.57;;
22429;SDS011;11382;48.086;11.632;2023-08-17T02:21:01;10.60;;;8.27;;
22429;SDS011;11382;48.086;11.632;2023-08-17T02:23:30;8.57;;;7.70;;
22429;SDS011;11382;48.086;11.632;2023-08-17T02:25:58;8.88;;;7.78;;
22429;SDS011;11382;48.086;11.632;2023-08-17T02:28:27;12.18;;;8.13;;
22429;SDS011;11382;48.086;11.632;2023-08-17T02:30:56;10.02;;;8.10;;
22429;SDS011;11382;48.086;11.632;2023-08-17T02:33:26;10.23;;;8.13;;
22429;SDS011;11382;48.086;11.632;2023-08-17T02:35:54;9.77;;;7.53;;
22429;SDS011;11382;48.086;11.632;2023-08-17T02:38:22;10.70;;;7.82;;
22429;SDS011;11382;48.086;11.632;2023-08-17T02:40:50;9.00;;;8.07;;
22429;SDS011;11382;48.086;11.632;2023-08-17T02:43:18;9.15;;;7.80;;
22429;SDS011;11382;48.086;11.632;2023-08-17T02:45:48;11.77;;;8.15;;
22429;SDS011;11382;48.086;11.632;2023-08-17T02:48:16;10.32;;;8.23;;
22429;SDS011;11382;48.086;11.632;2023-08-17T02:50:44;9.88;;;8.68;;
22429;SDS011;11382;48.086;11.632;2023-08-17T02:53:12;10.35;;;8.35;;
22429;SDS011;11382;48.086;11.632;2023-08-17T02:55:40;8.55;;;7.65;;
22429;SDS011;11382;48.086;11.632;2023-08-17T02:58:08;9.90;;;8.00;;
22429;SDS011;11382;48.086;11.632;2023-08-17T03:00:36;10.50;;;8.25;;
22429;SDS011;11382;48.086;11.632;2023-08-17T03:03:05;10.25;;;8.18;;
22429;SDS011;11382;48.086;11.632;2023-08-17T03:05:34;9.93;;;8.23;;
22429;SDS011;11382;48.086;11.632;2023-08-17T03:08:02;12.55;;;8.30;;
22429;SDS011;11382;48.086;11.632;2023-08-17T03:10:30;12.80;;;8.60;;
22429;SDS011;11382;48.086;11.632;2023-08-17T03:12:59;10.52;;;8.20;;
22429;SDS011;11382;48.086;11.632;2023-08-17T03:15:27;9.88;;;8.13;;
22429;SDS011;11382;48.086;11.632;2023-08-17T03:17:55;9.88;;;8.60;;
22429;SDS011;11382;48.086;11.632;2023-08-17T03:20:24;11.27;;;9.02;;
22429;SDS011;11382;48.086;11.632;2023-08-17T03:22:52;12.93;;;8.77;;
22429;SDS011;11382;48.086;11.632;2023-08-17T03:25:22;11.48;;;8.73;;
22429;SDS011;11382;48.086;11.632;2023-08-17T03:27:50;9.10;;;8.18;;
22429;SDS011;11382;48.086;11.632;2023-08-17T03:30:19;10.55;;;8.60;;
22429;SDS011;11382;48.086;11.632;2023-08-17T03:32:47;11.35;;;9.07;;
22429;SDS011;11382;48.086;11.632;2023-08-17T03:35:15;9.93;;;8.77;;
22429;SDS011;11382;48.086;11.632;2023-08-17T03:37:44;12.27;;;8.68;;
22429;SDS011;11382;48.086;11.632;2023-08-17T03:40:13;10.45;;;8.23;;
22429;SDS011;11382;48.086;11.632;2023-08-17T03:42:41;16.80;;;8.88;;
22429;SDS011;11382;48.086;11.632;2023-08-17T03:45:09;9.40;;;8.38;;
22429;SDS011;11382;48.086;11.632;2023-08-17T03:47:37;9.63;;;8.55;;
22429;SDS011;11382;48.086;11.632;2023-08-17T03:50:05;9.93;;;8.45;;
22429;SDS011;11382;48.086;11.632;2023-08-17T03:52:35;9.80;;;8.13;;
22429;SDS011;11382;48.086;11.632;2023-08-17T03:55:05;9.23;;;8.32;;
22429;SDS011;11382;48.086;11.632;2023-08-17T03:57:33;9.90;;;8.00;;
22429;SDS011;11382;48.086;11.632;2023-08-17T04:00:05;8.32;;;7.43;;
22429;SDS011;11382;48.086;11.632;2023-08-17T04:02:40;8.30;;;7.22;;
22429;SDS011;11382;48.086;11.632;2023-08-17T04:05:13;9.13;;;8.23;;
22429;SDS011;11382;48.086;11.632;2023-08-17T04:07:41;8.80;;;7.90;;
22429;SDS011;11382;48.086;11.632;2023-08-17T04:10:10;14.52;;;7.53;;
22429;SDS011;11382;48.086;11.632;2023-08-17T04:12:38;10.55;;;7.93;;
22429;SDS011;11382;48.086;11.632;2023-08-17T04:15:06;9.50;;;7.80;;
22429;SDS011;11382;48.086;11.632;2023-08-17T04:17:35;10.98;;;7.90;;
22429;SDS011;11382;48.086;11.632;2023-08-17T04:20:03;9.95;;;8.23;;
22429;SDS011;11382;48.086;11.632;2023-08-17T04:22:32;9.15;;;7.43;;
22429;SDS011;11382;48.086;11.632;2023-08-17T04:25:00;9.90;;;8.18;;
22429;SDS011;11382;48.086;11.632;2023-08-17T04:27:30;8.93;;;7.95;;
22429;SDS011;11382;48.086;11.632;2023-08-17T04:29:58;10.48;;;7.50;;
22429;SDS011;11382;48.086;11.632;2023-08-17T04:32:34;8.82;;;7.57;;
22429;SDS011;11382;48.086;11.632;2023-08-17T04:35:02;9.38;;;7.40;;
22429;SDS011;11382;48.086;11.632;2023-08-17T04:37:31;8.60;;;7.55;;
22429;SDS011;11382;48.086;11.632;2023-08-17T04:39:59;9.38;;;7.80;;
22429;SDS011;11382;48.086;11.632;2023-08-17T04:42:27;10.55;;;7.60;;
22429;SDS011;11382;48.086;11.632;2023-08-17T04:44:57;9.73;;;7.78;;
22429;SDS011;11382;48.086;11.632;2023-08-17T04:47:25;9.15;;;7.90;;
22429;SDS011;11382;48.086;11.632;2023-08-17T04:49:54;8.88;;;7.70;;
22429;SDS011;11382;48.086;11.632;2023-08-17T04:52:22;7.93;;;7.13;;
22429;SDS011;11382;48.086;11.632;2023-08-17T04:54:50;9.00;;;8.10;;
22429;SDS011;11382;48.086;11.632;2023-08-17T04:57:18;9.45;;;8.52;;
22429;SDS011;11382;48.086;11.632;2023-08-17T04:59:46;9.32;;;8.32;;
22429;SDS011;11382;48.086;11.632;2023-08-17T05:02:17;9.95;;;8.02;;
22429;SDS011;11382;48.086;11.632;2023-08-17T05:04:46;9.10;;;8.18;;
22429;SDS011;11382;48.086;11.632;2023-08-17T05:07:14;9.57;;;8.13;;
22429;SDS011;11382;48.086;11.632;2023-08-17T05:09:42;8.75;;;7.57;;
22429;SDS011;11382;48.086;11.632;2023-08-17T05:12:10;12.90;;;7.80;;
22429;SDS011;11382;48.086;11.632;2023-08-17T05:14:38;7.93;;;7.13;;
22429;SDS011;11382;48.086;11.632;2023-08-17T05:17:06;9.05;;;7.72;;
22429;SDS011;11382;48.086;11.632;2023-08-17T05:19:35;8.80;;;7.70;;
22429;SDS011;11382;48.086;11.632;2023-08-17T05:22:05;8.30;;;7.03;;
22429;SDS011;11382;48.086;11.632;2023-08-17T05:24:37;8.50;;;7.18;;
22429;SDS011;11382;48.086;11.632;2023-08-17T05:27:06;8.38;;;7.07;;
22429;SDS011;11382;48.086;11.632;2023-08-17T05:29:35;8.75;;;7.07;;
22429;SDS011;11382;48.086;11.632;2023-08-17T05:32:04;8.85;;;6.63;;
22429;SDS011;11382;48.086;11.632;2023-08-17T05:34:33;7.95;;;6.97;;
22429;SDS011;11382;48.086;11.632;2023-08-17T05:37:03;11.73;;;7.40;;
22429;SDS011;11382;48.086;11.632;2023-08-17T05:39:32;8.48;;;6.75;;
22429;SDS011;11382;48.086;11.632;2023-08-17T05:42:02;8.52;;;6.45;;
22429;SDS011;11382;48.086;11.632;2023-08-17T05:44:30;9.68;;;6.97;;
22429;SDS011;11382;48.086;11.632;2023-08-17T05:46:58;7.20;;;6.50;;
22429;SDS011;11382;48.086;11.632;2023-08-17T05:49:26;8.77;;;6.68;;
22429;SDS011;11382;48.086;11.632;2023-08-17T05:51:54;6.93;;;6.25;;
22429;SDS011;11382;48.086;11.632;2023-08-17T05:54:23;7.20;;;6.38;;
22429;SDS011;11382;48.086;11.632;2023-08-17T05:56:51;7.55;;;6.60;;
22429;SDS011;11382;48.086;11.632;2023-08-17T05:59:19;7.57;;;6.15;;
22429;SDS011;11382;48.086;11.632;2023-08-17T06:01:47;10.70;;;6.78;;
22429;SDS011;11382;48.086;11.632;2023-08-17T06:04:15;6.63;;;6.03;;
22429;SDS011;11382;48.086;11.632;2023-08-17T06:06:43;6.65;;;6.03;;
22429;SDS011;11382;48.086;11.632;2023-08-17T06:09:11;9.30;;;6.30;;
22429;SDS011;11382;48.086;11.632;2023-08-17T06:11:41;6.60;;;5.88;;
22429;SDS011;11382;48.086;11.632;2023-08-17T06:14:09;7.28;;;6.00;;
22429;SDS011;11382;48.086;11.632;2023-08-17T06:16:37;7.28;;;6.53;;
22429;SDS011;11382;48.086;11.632;2023-08-17T06:19:05;6.53;;;5.88;;
22429;SDS011;11382;48.086;11.632;2023-08-17T06:21:33;7.68;;;5.75;;
22429;SDS011;11382;48.086;11.632;2023-08-17T06:24:01;6.07;;;5.47;;
22429;SDS011;11382;48.086;11.632;2023-08-17T06:26:30;6.90;;;5.72;;
22429;SDS011;11382;48.086;11.632;2023-08-17T06:29:00;5.85;;;5.28;;
22429;SDS011;11382;48.086;11.632;2023-08-17T06:31:29;7.60;;;5.63;;
22429;SDS011;11382;48.086;11.632;2023-08-17T06:33:57;7.22;;;5.30;;
22429;SDS011;11382;48.086;11.632;2023-08-17T06:36:25;5.10;;;4.65;;
22429;SDS011;11382;48.086;11.632;2023-08-17T06:38:57;6.13;;;5.47;;
22429;SDS011;11382;48.086;11.632;2023-08-17T06:41:25;5.22;;;4.82;;
22429;SDS011;11382;48.086;11.632;2023-08-17T06:43:53;5.78;;;5.28;;
22429;SDS011;11382;48.086;11.632;2023-08-17T06:46:22;6.10;;;5.25;;
22429;SDS011;11382;48.086;11.632;2023-08-17T06:48:51;7.10;;;5.15;;
22429;SDS011;11382;48.086;11.632;2023-08-17T06:51:19;8.15;;;5.05;;
22429;SDS011;11382;48.086;11.632;2023-08-17T06:53:46;6.22;;;5.28;;
22429;SDS011;11382;48.086;11.632;2023-08-17T06:56:15;5.85;;;5.35;;
22429;SDS011;11382;48.086;11.632;2023-08-17T06:58:43;7.40;;;5.30;;
22429;SDS011;11382;48.086;11.632;2023-08-17T07:01:11;8.00;;;5.15;;
22429;SDS011;11382;48.086;11.632;2023-08-17T07:03:40;4.97;;;4.53;;
22429;SDS011;11382;48.086;11.632;2023-08-17T07:06:08;6.35;;;5.20;;
22429;SDS011;11382;48.086;11.632;2023-08-17T07:08:37;6.03;;;5.40;;
22429;SDS011;11382;48.086;11.632;2023-08-17T07:11:05;6.05;;;4.93;;
22429;SDS011;11382;48.086;11.632;2023-08-17T07:13:35;7.43;;;5.28;;
22429;SDS011;11382;48.086;11.632;2023-08-17T07:16:03;4.95;;;4.55;;
22429;SDS011;11382;48.086;11.632;2023-08-17T07:18:31;5.82;;;5.20;;
22429;SDS011;11382;48.086;11.632;2023-08-17T07:21:00;6.22;;;4.90;;
22429;SDS011;11382;48.086;11.632;2023-08-17T07:23:28;4.88;;;4.40;;
22429;SDS011;11382;48.086;11.632;2023-08-17T07:25:56;5.57;;;4.45;;
22429;SDS011;11382;48.086;11.632;2023-08-17T07:28:24;5.30;;;4.85;;
22429;SDS011;11382;48.086;11.632;2023-08-17T07:30:52;5.47;;;4.57;;
22429;SDS011;11382;48.086;11.632;2023-08-17T07:33:20;5.75;;;4.47;;
22429;SDS011;11382;48.086;11.632;2023-08-17T07:35:48;5.38;;;4.32;;
22429;SDS011;11382;48.086;11.632;2023-08-17T07:38:17;6.82;;;5.30;;
22429;SDS011;11382;48.086;11.632;2023-08-17T07:40:45;6.90;;;4.60;;
22429;SDS011;11382;48.086;11.632;2023-08-17T07:43:13;5.10;;;4.60;;
22429;SDS011;11382;48.086;11.632;2023-08-17T07:45:41;5.25;;;4.75;;
22429;SDS011;11382;48.086;11.632;2023-08-17T07:48:09;5.20;;;4.57;;
22429;SDS011;11382;48.086;11.632;2023-08-17T07:50:37;5.05;;;4.63;;
22429;SDS011;11382;48.086;11.632;2023-08-17T07:53:05;5.30;;;4.68;;
22429;SDS011;11382;48.086;11.632;2023-08-17T07:55:34;4.75;;;4.38;;
22429;SDS011;11382;48.086;11.632;2023-08-17T07:58:02;6.18;;;5.13;;
22429;SDS011;11382;48.086;11.632;2023-08-17T08:00:32;4.90;;;4.15;;
22429;SDS011;11382;48.086;11.632;2023-08-17T08:03:00;5.30;;;4.80;;
22429;SDS011;11382;48.086;11.632;2023-08-17T08:05:28;5.80;;;4.72;;
22429;SDS011;11382;48.086;11.632;2023-08-17T08:07:56;5.70;;;4.40;;
22429;SDS011;11382;48.086;11.632;2023-08-17T08:10:24;6.15;;;4.60;;
22429;SDS011;11382;48.086;11.632;2023-08-17T08:12:53;5.20;;;4.70;;
22429;SDS011;11382;48.086;11.632;2023-08-17T08:15:21;4.75;;;4.28;;
22429;SDS011;11382;48.086;11.632;2023-08-17T08:17:49;4.80;;;4.40;;
22429;SDS011;11382;48.086;11.632;2023-08-17T08:20:17;6.05;;;4.35;;
22429;SDS011;11382;48.086;11.632;2023-08-17T08:22:45;6.32;;;4.60;;
22429;SDS011;11382;48.086;11.632;2023-08-17T08:25:13;4.60;;;4.20;;
22429;SDS011;11382;48.086;11.632;2023-08-17T08:27:41;6.13;;;4.28;;
22429;SDS011;11382;48.086;11.632;2023-08-17T08:30:11;5.07;;;4.68;;
22429;SDS011;11382;48.086;11.632;2023-08-17T08:32:39;4.68;;;4.20;;
22429;SDS011;11382;48.086;11.632;2023-08-17T08:35:07;4.30;;;4.00;;
22429;SDS011;11382;48.086;11.632;2023-08-17T08:37:35;5.15;;;4.30;;
22429;SDS011;11382;48.086;11.632;2023-08-17T08:40:08;4.90;;;4.40;;
22429;SDS011;11382;48.086;11.632;2023-08-17T08:42:39;4.30;;;3.90;;
22429;SDS011;11382;48.086;11.632;2023-08-17T08:45:07;6.28;;;3.83;;
22429;SDS011;11382;48.086;11.632;2023-08-17T08:47:37;3.67;;;3.38;;
22429;SDS011;11382;48.086;11.632;2023-08-17T08:50:07;3.93;;;3.50;;
22429;SDS011;11382;48.086;11.632;2023-08-17T08:52:40;3.67;;;3.00;;
22429;SDS011;11382;48.086;11.632;2023-08-17T08:55:14;3.85;;;3.47;;
22429;SDS011;11382;48.086;11.632;2023-08-17T08:57:45;3.70;;;3.40;;
22429;SDS011;11382;48.086;11.632;2023-08-17T09:00:17;7.45;;;3.45;;
22429;SDS011;11382;48.086;11.632;2023-08-17T09:02:47;3.72;;;3.42;;
22429;SDS011;11382;48.086;11.632;2023-08-17T09:05:16;4.55;;;3.22;;
22429;SDS011;11382;48.086;11.632;2023-08-17T09:07:45;4.85;;;3.22;;
22429;SDS011;11382;48.086;11.632;2023-08-17T09:10:15;3.80;;;3.50;;
22429;SDS011;11382;48.086;11.632;2023-08-17T09:12:45;4.13;;;3.72;;
22429;SDS011;11382;48.086;11.632;2023-08-17T09:17:43;4.20;;;3.80;;
22429;SDS011;11382;48.086;11.632;2023-08-17T09:20:17;3.97;;;3.55;;
22429;SDS011;11382;48.086;11.632;2023-08-17T09:23:03;4.03;;;3.58;;
22429;SDS011;11382;48.086;11.632;2023-08-17T09:25:31;4.93;;;3.60;;
22429;SDS011;11382;48.086;11.632;2023-08-17T09:28:02;4.13;;;3.72;;
22429;SDS011;11382;48.086;11.632;2023-08-17T09:30:51;4.32;;;3.38;;
22429;SDS011;11382;48.086;11.632;2023-08-17T09:33:21;4.25;;;3.85;;
22429;SDS011;11382;48.086;11.632;2023-08-17T09:35:51;3.95;;;3.55;;
22429;SDS011;11382;48.086;11.632;2023-08-17T09:38:23;4.80;;;3.53;;
22429;SDS011;11382;48.086;11.632;2023-08-17T09:40:52;3.65;;;3.35;;
22429;SDS011;11382;48.086;11.632;2023-08-17T09:43:20;4.07;;;3.13;;
22429;SDS011;11382;48.086;11.632;2023-08-17T09:45:48;4.20;;;3.80;;
22429;SDS011;11382;48.086;11.632;2023-08-17T09:48:17;4.63;;;3.42;;
22429;SDS011;11382;48.086;11.632;2023-08-17T09:50:47;3.78;;;3.47;;
22429;SDS011;11382;48.086;11.632;2023-08-17T09:53:17;4.28;;;3.63;;
22429;SDS011;11382;48.086;11.632;2023-08-17T09:55:47;5.15;;;4.35;;
22429;SDS011;11382;48.086;11.632;2023-08-17T09:58:15;5.45;;;3.50;;
22429;SDS011;11382;48.086;11.632;2023-08-17T10:00:44;5.95;;;4.00;;
22429;SDS011;11382;48.086;11.632;2023-08-17T10:03:16;3.88;;;3.58;;
22429;SDS011;11382;48.086;11.632;2023-08-17T10:05:47;4.35;;;3.70;;
22429;SDS011;11382;48.086;11.632;2023-08-17T10:08:25;5.03;;;3.67;;
22429;SDS011;11382;48.086;11.632;2023-08-17T10:10:57;5.53;;;3.35;;
22429;SDS011;11382;48.086;11.632;2023-08-17T10:13:27;3.85;;;3.42;;
22429;SDS011;11382;48.086;11.632;2023-08-17T10:16:01;4.30;;;3.80;;
22429;SDS011;11382;48.086;11.632;2023-08-17T10:18:36;6.38;;;3.70;;
22429;SDS011;11382;48.086;11.632;2023-08-17T10:21:10;5.00;;;3.13;;
22429;SDS011;11382;48.086;11.632;2023-08-17T10:23:46;4.38;;;3.63;;
22429;SDS011;11382;48.086;11.632;2023-08-17T10:26:14;4.10;;;3.47;;
22429;SDS011;11382;48.086;11.632;2023-08-17T10:28:44;5.35;;;3.58;;
22429;SDS011;11382;48.086;11.632;2023-08-17T10:31:13;4.20;;;3.80;;
22429;SDS011;11382;48.086;11.632;2023-08-17T10:33:41;4.78;;;3.60;;
22429;SDS011;11382;48.086;11.632;2023-08-17T10:36:12;3.83;;;3.53;;
22429;SDS011;11382;48.086;11.632;2023-08-17T10:38:41;3.83;;;3.53;;
22429;SDS011;11382;48.086;11.632;2023-08-17T10:41:11;3.97;;;3.55;;
22429;SDS011;11382;48.086;11.632;2023-08-17T10:43:53;4.03;;;3.63;;
22429;SDS011;11382;48.086;11.632;2023-08-17T10:46:31;4.18;;;3.75;;
22429;SDS011;11382;48.086;11.632;2023-08-17T10:49:03;4.03;;;3.20;;
22429;SDS011;11382;48.086;11.632;2023-08-17T10:51:33;4.32;;;3.63;;
22429;SDS011;11382;48.086;11.632;2023-08-17T10:54:02;4.35;;;3.95;;
22429;SDS011;11382;48.086;11.632;2023-08-17T10:56:32;4.20;;;3.80;;
22429;SDS011;11382;48.086;11.632;2023-08-17T10:59:00;4.20;;;3.70;;
22429;SDS011;11382;48.086;11.632;2023-08-17T11:01:33;4.13;;;3.72;;
22429;SDS011;11382;48.086;11.632;2023-08-17T11:04:09;3.97;;;3.67;;
22429;SDS011;11382;48.086;11.632;2023-08-17T11:06:38;4.10;;;3.78;;
22429;SDS011;11382;48.086;11.632;2023-08-17T11:09:07;3.85;;;3.55;;
22429;SDS011;11382;48.086;11.632;2023-08-17T11:11:37;3.70;;;3.40;;
22429;SDS011;11382;48.086;11.632;2023-08-17T11:14:05;4.45;;;3.95;;
22429;SDS011;11382;48.086;11.632;2023-08-17T11:16:33;4.30;;;3.67;;
22429;SDS011;11382;48.086;11.632;2023-08-17T11:19:01;6.55;;;3.95;;
22429;SDS011;11382;48.086;11.632;2023-08-17T11:21:29;4.57;;;4.18;;
22429;SDS011;11382;48.086;11.632;2023-08-17T11:23:57;4.57;;;4.15;;
22429;SDS011;11382;48.086;11.632;2023-08-17T11:26:25;4.40;;;4.00;;
22429;SDS011;11382;48.086;11.632;2023-08-17T11:29:02;4.45;;;4.05;;
22429;SDS011;11382;48.086;11.632;2023-08-17T11:31:31;4.40;;;4.00;;
22429;SDS011;11382;48.086;11.632;2023-08-17T11:34:00;4.18;;;3.78;;
22429;SDS011;11382;48.086;11.632;2023-08-17T11:36:28;4.80;;;4.00;;
22429;SDS011;11382;48.086;11.632;2023-08-17T11:38:57;4.95;;;4.45;;
22429;SDS011;11382;48.086;11.632;2023-08-17T11:41:25;4.70;;;4.30;;
22429;SDS011;11382;48.086;11.632;2023-08-17T11:43:53;4.50;;;4.13;;
22429;SDS011;11382;48.086;11.632;2023-08-17T11:46:24;4.70;;;4.30;;
22429;SDS011;11382;48.086;11.632;2023-08-17T11:48:58;4.97;;;3.88;;
22429;SDS011;11382;48.086;11.632;2023-08-17T11:51:29;7.57;;;5.23;;
22429;SDS011;11382;48.086;11.632;2023-08-17T11:53:58;5.37;;;4.40;;
22429;SDS011;11382;48.086;11.632;2023-08-17T11:56:27;4.82;;;4.43;;
22429;SDS011;11382;48.086;11.632;2023-08-17T11:58:55;6.00;;;4.43;;
22429;SDS011;11382;48.086;11.632;2023-08-17T12:01:24;7.55;;;4.70;;
22429;SDS011;11382;48.086;11.632;2023-08-17T12:03:52;7.18;;;5.43;;
22429;SDS011;11382;48.086;11.632;2023-08-17T12:06:20;5.68;;;5.07;;
22429;SDS011;11382;48.086;11.632;2023-08-17T12:08:48;6.32;;;5.65;;
22429;SDS011;11382;48.086;11.632;2023-08-17T12:11:17;8.02;;;5.70;;
22429;SDS011;11382;48.086;11.632;2023-08-17T12:13:48;6.18;;;5.63;;
22429;SDS011;11382;48.086;11.632;2023-08-17T12:16:18;8.88;;;6.40;;
22429;SDS011;11382;48.086;11.632;2023-08-17T12:18:48;7.82;;;6.43;;
22429;SDS011;11382;48.086;11.632;2023-08-17T12:21:19;6.82;;;5.90;;
22429;SDS011;11382;48.086;11.632;2023-08-17T12:23:47;7.28;;;6.18;;
22429;SDS011;11382;48.086;11.632;2023-08-17T12:26:18;7.07;;;6.22;;
22429;SDS011;11382;48.086;11.632;2023-08-17T12:28:46;7.03;;;6.32;;
22429;SDS011;11382;48.086;11.632;2023-08-17T12:31:14;10.23;;;5.50;;
22429;SDS011;11382;48.086;11.632;2023-08-17T12:33:50;6.82;;;6.22;;
22429;SDS011;11382;48.086;11.632;2023-08-17T12:36:19;6.88;;;5.85;;
22429;SDS011;11382;48.086;11.632;2023-08-17T12:38:48;6.65;;;6.15;;
22429;SDS011;11382;48.086;11.632;2023-08-17T12:41:16;6.50;;;6.00;;
22429;SDS011;11382;48.086;11.632;2023-08-17T12:43:44;10.15;;;6.40;;
22429;SDS011;11382;48.086;11.632;2023-08-17T12:46:13;6.93;;;6.20;;
22429;SDS011;11382;48.086;11.632;2023-08-17T12:48:41;7.88;;;6.57;;
22429;SDS011;11382;48.086;11.632;2023-08-17T12:51:10;7.13;;;6.53;;
22429;SDS011;11382;48.086;11.632;2023-08-17T12:53:38;6.38;;;5.78;;
22429;SDS011;11382;48.086;11.632;2023-08-17T12:56:06;6.07;;;5.47;;
22429;SDS011;11382;48.086;11.632;2023-08-17T12:58:34;6.22;;;5.72;;
22429;SDS011;11382;48.086;11.632;2023-08-17T13:01:02;6.70;;;6.10;;
22429;SDS011;11382;48.086;11.632;2023-08-17T13:03:30;6.30;;;5.70;;
22429;SDS011;11382;48.086;11.632;2023-08-17T13:05:59;6.75;;;6.15;;
22429;SDS011;11382;48.086;11.632;2023-08-17T13:08:28;6.78;;;6.05;;
22429;SDS011;11382;48.086;11.632;2023-08-17T13:10:56;7.85;;;6.03;;
22429;SDS011;11382;48.086;11.632;2023-08-17T13:13:24;5.75;;;5.07;;
22429;SDS011;11382;48.086;11.632;2023-08-17T13:15:52;6.45;;;5.65;;
22429;SDS011;11382;48.086;11.632;2023-08-17T13:18:20;6.15;;;5.55;;
22429;SDS011;11382;48.086;11.632;2023-08-17T13:20:48;7.25;;;5.70;;
22429;SDS011;11382;48.086;11.632;2023-08-17T13:23:16;6.82;;;6.13;;
22429;SDS011;11382;48.086;11.632;2023-08-17T13:25:46;7.22;;;5.93;;
22429;SDS011;11382;48.086;11.632;2023-08-17T13:28:14;7.88;;;6.10;;
22429;SDS011;11382;48.086;11.632;2023-08-17T13:30:42;10.95;;;5.78;;
22429;SDS011;11382;48.086;11.632;2023-08-17T13:33:10;6.35;;;5.72;;
22429;SDS011;11382;48.086;11.632;2023-08-17T13:35:39;6.80;;;5.70;;
22429;SDS011;11382;48.086;11.632;2023-08-17T13:38:07;7.10;;;5.32;;
22429;SDS011;11382;48.086;11.632;2023-08-17T13:40:35;6.20;;;5.13;;
22429;SDS011;11382;48.086;11.632;2023-08-17T13:43:06;5.82;;;5.18;;
22429;SDS011;11382;48.086;11.632;2023-08-17T13:45:38;5.45;;;4.95;;
22429;SDS011;11382;48.086;11.632;2023-08-17T13:48:06;6.78;;;5.35;;
22429;SDS011;11382;48.086;11.632;2023-08-17T13:50:36;5.38;;;4.88;;
22429;SDS011;11382;48.086;11.632;2023-08-17T13:53:05;7.53;;;4.95;;
22429;SDS011;11382;48.086;11.632;2023-08-17T13:55:34;7.70;;;4.97;;
22429;SDS011;11382;48.086;11.632;2023-08-17T13:58:02;6.00;;;5.40;;
22429;SDS011;11382;48.086;11.632;2023-08-17T14:00:31;6.07;;;4.93;;
22429;SDS011;11382;48.086;11.632;2023-08-17T14:02:59;5.47;;;4.97;;
22429;SDS011;11382;48.086;11.632;2023-08-17T14:05:28;6.07;;;4.93;;
22429;SDS011;11382;48.086;11.632;2023-08-17T14:07:56;6.53;;;5.18;;
22429;SDS011;11382;48.086;11.632;2023-08-17T14:10:24;7.10;;;5.32;;
22429;SDS011;11382;48.086;11.632;2023-08-17T14:13:04;5.75;;;5.25;;
22429;SDS011;11382;48.086;11.632;2023-08-17T14:15:34;7.25;;;5.55;;
22429;SDS011;11382;48.086;11.632;2023-08-17T14:18:02;5.65;;;5.15;;
22429;SDS011;11382;48.086;11.632;2023-08-17T14:20:31;6.07;;;5.50;;
22429;SDS011;11382;48.086;11.632;2023-08-17T14:22:59;6.93;;;6.22;;
22429;SDS011;11382;48.086;11.632;2023-08-17T14:25:27;7.38;;;6.00;;
22429;SDS011;11382;48.086;11.632;2023-08-17T14:27:55;9.10;;;5.97;;
22429;SDS011;11382;48.086;11.632;2023-08-17T14:30:24;6.25;;;5.65;;
22429;SDS011;11382;48.086;11.632;2023-08-17T14:32:54;6.30;;;5.68;;
22429;SDS011;11382;48.086;11.632;2023-08-17T14:35:26;7.00;;;5.57;;
22429;SDS011;11382;48.086;11.632;2023-08-17T14:37:55;8.35;;;5.68;;
22429;SDS011;11382;48.086;11.632;2023-08-17T14:40:24;7.10;;;6.40;;
22429;SDS011;11382;48.086;11.632;2023-08-17T14:42:53;7.22;;;6.53;;
22429;SDS011;11382;48.086;11.632;2023-08-17T14:45:21;6.40;;;5.80;;
22429;SDS011;11382;48.086;11.632;2023-08-17T14:47:49;6.20;;;5.68;;